Time;durP1;ratioP1;P1;durP2;ratioP2;P2;SDS_P1;SDS_P2;PMS_P1;PMS_P2;Temp;Humidity;BMP_temperature;BMP_pressure;BME280_temperature;BME280_humidity;BME280_pressure;Samples;Min_cycle;Max_cycle;Signal;HPM_P1;HPM_P2
2024/01/17 00:00:21;;;;;;;23.90;10.55;;;;;;;4.75;56.29;100223.88;4997164;28;20046;-44
2024/01/17 00:02:47;;;;;;;25.33;10.80;;;;;;;4.85;56.26;100220.69;4994912;28;20034;-45
2024/01/17 00:05:12;;;;;;;22.92;10.35;;;;;;;4.73;57.20;100209.16;4994946;28;20034;-46
2024/01/17 00:07:38;;;;;;;24.23;11.02;;;;;;;4.74;56.58;100204.03;4994067;28;20050;-46
2024/01/17 00:10:04;;;;;;;22.10;10.73;;;;;;;4.70;56.80;100201.31;4993802;28;20125;-44
2024/01/17 00:12:30;;;;;;;22.75;10.85;;;;;;;4.75;56.98;100204.91;4993211;28;20035;-49
2024/01/17 00:14:55;;;;;;;23.65;11.65;;;;;;;4.73;56.41;100197.13;4993239;28;20023;-46
2024/01/17 00:17:21;;;;;;;27.25;12.10;;;;;;;4.61;57.50;100195.94;4991631;28;20282;-46
2024/01/17 00:19:46;;;;;;;27.23;11.65;;;;;;;4.40;57.86;100194.50;4993256;28;20121;-48
2024/01/17 00:22:14;;;;;;;28.58;12.00;;;;;;;4.54;57.60;100179.41;4993220;28;20034;-45
2024/01/17 00:24:39;;;;;;;23.35;11.85;;;;;;;4.53;57.43;100172.50;4992552;28;20030;-47
2024/01/17 00:27:05;;;;;;;27.38;11.93;;;;;;;4.55;57.45;100169.97;4993413;28;20038;-44
2024/01/17 00:29:31;;;;;;;24.40;12.43;;;;;;;4.32;57.97;100169.34;4992945;28;20038;-44
2024/01/17 00:31:56;;;;;;;28.33;12.55;;;;;;;4.25;58.61;100168.31;4993143;28;20033;-45
2024/01/17 00:34:21;;;;;;;23.77;12.45;;;;;;;4.44;58.43;100159.34;4992626;28;20038;-48
2024/01/17 00:36:47;;;;;;;27.85;12.63;;;;;;;4.44;58.10;100162.81;4991957;28;20057;-44
2024/01/17 00:39:13;;;;;;;30.58;13.10;;;;;;;4.40;58.40;100163.53;4992853;28;20041;-45
2024/01/17 00:41:39;;;;;;;29.60;13.15;;;;;;;4.44;57.81;100156.78;4992761;28;20029;-46
2024/01/17 00:44:04;;;;;;;29.83;12.98;;;;;;;4.19;58.79;100149.22;4994114;28;20034;-44
2024/01/17 00:46:31;;;;;;;26.85;12.80;;;;;;;4.49;57.94;100157.75;4991764;28;20039;-46
2024/01/17 00:48:56;;;;;;;29.20;13.15;;;;;;;4.45;57.99;100156.78;4993541;28;20037;-51
2024/01/17 00:51:22;;;;;;;28.50;12.40;;;;;;;4.56;57.84;100148.47;4992788;28;20035;-44
2024/01/17 00:53:48;;;;;;;29.48;13.95;;;;;;;4.42;57.73;100150.69;4993492;28;20485;-45
2024/01/17 00:56:13;;;;;;;25.85;13.18;;;;;;;4.40;58.58;100148.06;4992274;28;20069;-45
2024/01/17 00:58:39;;;;;;;25.20;12.63;;;;;;;4.54;57.24;100144.97;4993495;28;20092;-45
2024/01/17 01:01:04;;;;;;;27.80;13.18;;;;;;;4.13;58.24;100134.44;4993228;28;20389;-45
2024/01/17 01:03:29;;;;;;;32.30;13.63;;;;;;;4.44;57.98;100133.56;4992224;28;20038;-46
2024/01/17 01:05:54;;;;;;;26.15;12.52;;;;;;;4.39;58.30;100125.66;4992061;28;20034;-45
2024/01/17 01:08:20;;;;;;;28.27;12.50;;;;;;;4.36;58.41;100120.44;4991729;28;20046;-45
2024/01/17 01:10:45;;;;;;;26.88;12.93;;;;;;;4.42;57.98;100122.31;4992660;28;20053;-50
2024/01/17 01:13:11;;;;;;;26.52;12.65;;;;;;;4.32;57.89;100116.03;4992401;28;20038;-44
2024/01/17 01:15:37;;;;;;;28.00;12.73;;;;;;;4.27;58.41;100111.59;4988988;28;20034;-44
2024/01/17 01:18:02;;;;;;;31.25;13.00;;;;;;;4.39;58.27;100111.91;4993113;28;20030;-45
2024/01/17 01:20:28;;;;;;;29.10;12.30;;;;;;;4.41;57.63;100113.69;4992229;28;20034;-46
2024/01/17 01:22:53;;;;;;;24.20;12.00;;;;;;;4.33;58.05;100107.44;4990761;28;20449;-44
2024/01/17 02:05:37;;;;;;;29.08;13.50;;;;;;;4.18;57.23;100054.59;4990752;28;20069;-44
2024/01/17 02:08:02;;;;;;;33.90;14.02;;;;;;;3.97;58.73;100049.72;4991129;28;20121;-47
2024/01/17 02:10:28;;;;;;;33.25;14.38;;;;;;;3.98;58.10;100060.09;4990895;28;20049;-48
2024/01/17 02:12:54;;;;;;;28.10;13.75;;;;;;;4.05;58.46;100050.81;4991412;28;20580;-47
2024/01/17 02:15:19;;;;;;;30.90;14.77;;;;;;;4.25;58.09;100043.59;4990622;28;20031;-45
2024/01/17 02:17:45;;;;;;;34.30;14.73;;;;;;;4.13;58.43;100032.97;4991389;28;20064;-45
2024/01/17 02:20:11;;;;;;;34.05;14.93;;;;;;;4.27;57.61;100034.19;4991046;28;20459;-47
2024/01/17 02:22:36;;;;;;;36.83;15.13;;;;;;;4.29;57.61;100029.94;4990871;28;20500;-46
2024/01/17 02:25:03;;;;;;;33.22;15.38;;;;;;;4.26;57.97;100019.53;4990456;28;20077;-45
2024/01/17 02:27:28;;;;;;;35.00;16.40;;;;;;;4.18;58.09;100021.94;4990604;28;20038;-46
2024/01/17 02:29:54;;;;;;;32.83;15.00;;;;;;;4.15;58.35;100016.69;4989443;28;20104;-46
2024/01/17 02:32:20;;;;;;;35.72;15.98;;;;;;;3.96;58.87;100017.06;4988949;28;20041;-45
2024/01/17 02:34:45;;;;;;;35.15;16.73;;;;;;;4.11;58.98;100021.72;4990754;28;20038;-48
2024/01/17 02:37:14;;;;;;;36.10;15.73;;;;;;;4.14;58.54;100019.25;4990357;28;20034;-44
2024/01/17 02:39:39;;;;;;;33.60;16.13;;;;;;;3.78;59.25;100007.13;4990172;28;20030;-49
2024/01/17 02:42:05;;;;;;;37.63;15.85;;;;;;;4.22;58.64;99997.94;4990111;28;20034;-44
2024/01/17 02:44:30;;;;;;;36.38;16.65;;;;;;;4.31;58.11;99997.31;4990106;28;20026;-47
2024/01/17 02:46:56;;;;;;;33.58;16.58;;;;;;;4.22;58.21;99987.63;4990687;28;20041;-45
2024/01/17 02:49:21;;;;;;;36.03;16.48;;;;;;;4.04;59.25;99987.16;4990448;28;20535;-46
2024/01/17 02:51:47;;;;;;;34.13;16.52;;;;;;;4.19;58.33;99987.56;4990777;28;20125;-43
2024/01/17 02:54:12;;;;;;;37.88;15.75;;;;;;;4.15;58.30;99980.56;4990725;28;20030;-45
2024/01/17 02:56:37;;;;;;;33.58;16.90;;;;;;;4.11;58.82;99978.75;4989803;28;20034;-47
2024/01/17 02:59:03;;;;;;;40.00;17.23;;;;;;;3.94;59.14;99977.47;4991176;28;20038;-45
2024/01/17 03:01:28;;;;;;;38.55;17.52;;;;;;;3.96;59.09;99975.81;4994876;28;20038;-45
2024/01/17 03:03:53;;;;;;;40.03;17.13;;;;;;;3.97;59.04;99974.94;4995572;28;20153;-44
2024/01/17 03:06:19;;;;;;;37.00;17.58;;;;;;;4.09;58.67;99967.50;4994658;28;20073;-43
2024/01/17 03:08:44;;;;;;;37.95;16.55;;;;;;;3.98;59.15;99958.66;4995729;28;20034;-44
2024/01/17 03:11:10;;;;;;;37.53;16.88;;;;;;;4.03;59.16;99959.63;4995176;28;20507;-45
2024/01/17 03:13:35;;;;;;;33.38;15.90;;;;;;;3.99;58.86;99955.25;4994722;28;20034;-48
2024/01/17 03:16:01;;;;;;;36.47;17.48;;;;;;;3.89;59.74;99956.72;4994117;28;20488;-51
2024/01/17 03:18:26;;;;;;;38.65;16.83;;;;;;;4.00;59.13;99941.50;4993837;28;20057;-44
2024/01/17 03:20:51;;;;;;;34.38;17.20;;;;;;;3.76;59.74;99935.75;4994540;28;20033;-47
2024/01/17 03:23:17;;;;;;;35.38;16.77;;;;;;;3.97;59.59;99918.22;4994585;28;20575;-46
2024/01/17 03:25:42;;;;;;;33.17;16.55;;;;;;;3.93;59.64;99917.28;4994286;28;20043;-45
2024/01/17 03:28:07;;;;;;;35.00;17.25;;;;;;;3.81;60.49;99909.25;4995216;28;20074;-45
2024/01/17 03:30:34;;;;;;;35.30;16.35;;;;;;;3.81;60.00;99910.94;4994414;28;20377;-44
2024/01/17 03:32:59;;;;;;;33.97;17.00;;;;;;;3.87;59.50;99896.50;4992818;28;20041;-47
2024/01/17 03:35:24;;;;;;;35.92;15.95;;;;;;;4.04;59.58;99896.91;4994624;28;20057;-43
2024/01/17 03:37:50;;;;;;;36.97;16.42;;;;;;;3.88;59.23;99889.66;4994924;28;20408;-44
2024/01/17 03:40:15;;;;;;;35.10;16.73;;;;;;;4.01;59.39;99878.78;4992743;28;20042;-46
2024/01/17 03:42:40;;;;;;;36.65;17.58;;;;;;;3.91;59.48;99877.69;4994329;28;20062;-46
2024/01/17 03:45:06;;;;;;;32.40;16.38;;;;;;;3.97;59.19;99879.53;4994254;28;20062;-45
2024/01/17 03:47:31;;;;;;;35.22;15.93;;;;;;;3.90;59.65;99870.81;4991249;28;20411;-44
2024/01/17 03:49:57;;;;;;;33.13;16.70;;;;;;;3.93;59.89;99857.09;4992955;28;20096;-44
2024/01/17 03:52:23;;;;;;;38.35;16.00;;;;;;;3.85;59.53;99851.75;4994346;28;20038;-44
2024/01/17 03:54:48;;;;;;;36.22;16.77;;;;;;;3.80;59.97;99853.34;4996915;28;20065;-44
2024/01/17 03:57:14;;;;;;;33.13;16.35;;;;;;;3.83;60.12;99839.69;4995355;28;20038;-43
2024/01/17 03:59:43;;;;;;;32.00;16.08;;;;;;;3.97;59.32;99833.13;4994019;28;20054;-44
2024/01/17 04:02:09;;;;;;;41.13;17.25;;;;;;;3.90;59.71;99824.41;4995086;28;20039;-47
2024/01/17 04:04:34;;;;;;;36.67;16.42;;;;;;;3.76;60.18;99823.19;4993773;28;20064;-47
2024/01/17 04:06:59;;;;;;;39.55;17.08;;;;;;;3.90;59.61;99810.63;4994611;28;20042;-46
2024/01/17 04:09:24;;;;;;;34.85;17.33;;;;;;;3.54;60.18;99800.31;4993769;28;20074;-45
2024/01/17 04:11:50;;;;;;;35.55;16.10;;;;;;;3.67;60.45;99786.88;4997325;28;20037;-44
2024/01/17 04:14:16;;;;;;;35.75;16.70;;;;;;;3.81;60.34;99780.34;4992904;28;20030;-44
2024/01/17 04:16:41;;;;;;;34.03;16.23;;;;;;;3.80;60.60;99778.59;4993155;28;20041;-44
2024/01/17 04:19:08;;;;;;;37.15;16.30;;;;;;;3.79;60.24;99765.66;4991945;28;20031;-49
2024/01/17 04:21:34;;;;;;;39.40;16.52;;;;;;;3.65;60.06;99763.66;4992737;28;20034;-45
2024/01/17 04:23:59;;;;;;;35.10;16.17;;;;;;;3.81;60.24;99766.59;4993097;28;20409;-46
2024/01/17 04:26:26;;;;;;;38.08;17.50;;;;;;;3.77;60.27;99757.91;4990595;28;20755;-45
2024/01/17 04:28:52;;;;;;;36.38;16.17;;;;;;;3.71;60.87;99760.34;4993146;28;20092;-44
2024/01/17 04:31:28;;;;;;;37.05;16.25;;;;;;;3.54;61.00;99759.06;4992870;28;20045;-45
2024/01/17 04:33:54;;;;;;;30.90;14.65;;;;;;;3.88;59.88;99753.88;4993513;28;20045;-43
2024/01/17 04:36:20;;;;;;;33.25;15.63;;;;;;;3.86;60.10;99752.06;4992608;28;20040;-48
2024/01/17 04:38:46;;;;;;;31.30;14.98;;;;;;;3.85;59.44;99740.91;4992390;28;20432;-45
2024/01/17 04:41:12;;;;;;;31.20;15.48;;;;;;;3.75;59.95;99743.25;4991904;28;20030;-44
2024/01/17 04:43:44;;;;;;;32.67;15.35;;;;;;;3.60;60.42;99743.75;4992653;28;20035;-46
2024/01/17 04:46:12;;;;;;;32.75;15.13;;;;;;;3.90;60.29;99738.44;4992592;28;20041;-44
2024/01/17 04:48:39;;;;;;;33.00;15.07;;;;;;;3.79;60.30;99737.31;4991290;28;20121;-44
2024/01/17 04:51:04;;;;;;;35.88;14.95;;;;;;;3.97;59.69;99733.44;4991679;28;20113;-43
2024/01/17 04:53:30;;;;;;;33.60;14.45;;;;;;;4.00;59.50;99724.91;4993053;28;20161;-46
2024/01/17 04:55:56;;;;;;;37.75;15.50;;;;;;;3.96;59.36;99711.09;4992907;28;20030;-45
2024/01/17 04:58:21;;;;;;;32.17;14.75;;;;;;;3.87;59.42;99713.44;4991206;28;20062;-46
2024/01/17 05:00:46;;;;;;;30.70;14.43;;;;;;;3.97;59.34;99710.22;4992481;28;20042;-46
2024/01/17 05:03:12;;;;;;;29.75;14.25;;;;;;;3.75;60.19;99710.59;4992507;28;20038;-44
2024/01/17 05:05:37;;;;;;;30.73;14.05;;;;;;;3.83;59.82;99698.75;4991434;28;20038;-45
2024/01/17 05:08:03;;;;;;;34.25;14.88;;;;;;;3.89;59.85;99691.16;4992014;28;20038;-47
2024/01/17 05:10:29;;;;;;;32.30;14.13;;;;;;;3.83;59.84;99688.44;4991081;28;20065;-44
2024/01/17 05:12:54;;;;;;;31.35;14.45;;;;;;;3.73;59.93;99690.78;4992096;28;20035;-44
2024/01/17 05:15:19;;;;;;;30.17;13.98;;;;;;;3.84;59.62;99679.84;4991312;28;20042;-47
2024/01/17 05:17:45;;;;;;;30.17;13.73;;;;;;;3.99;59.39;99676.72;4992094;28;20046;-43
2024/01/17 05:20:11;;;;;;;32.70;14.13;;;;;;;4.01;59.07;99677.66;4992263;28;20141;-44
2024/01/17 05:22:39;;;;;;;32.30;14.63;;;;;;;3.97;58.93;99666.38;4991040;28;20030;-44
2024/01/17 05:25:06;;;;;;;28.80;14.18;;;;;;;3.85;59.49;99663.56;4991700;28;20022;-45
2024/01/17 05:27:32;;;;;;;31.25;14.07;;;;;;;3.88;59.09;99658.47;4990991;28;20046;-45
2024/01/17 05:29:57;;;;;;;33.40;13.45;;;;;;;3.94;58.90;99655.16;4992106;28;20030;-47
2024/01/17 05:32:22;;;;;;;39.58;14.15;;;;;;;3.88;58.77;99661.06;4991642;28;20034;-49
2024/01/17 05:34:50;;;;;;;26.65;12.88;;;;;;;3.94;59.17;99655.16;4992013;28;20031;-46
2024/01/17 05:37:16;;;;;;;26.75;12.98;;;;;;;3.91;58.93;99644.75;4993912;28;20058;-44
2024/01/17 05:39:41;;;;;;;27.65;12.88;;;;;;;4.04;58.64;99639.00;4992192;28;20057;-44
2024/01/17 05:42:06;;;;;;;27.20;12.82;;;;;;;4.07;58.00;99626.19;4992312;28;20034;-46
2024/01/17 05:44:32;;;;;;;27.75;12.52;;;;;;;4.04;58.00;99614.09;4989087;28;20045;-44
2024/01/17 05:46:57;;;;;;;30.08;12.93;;;;;;;3.73;58.39;99618.59;4991642;28;20549;-43
2024/01/17 05:49:23;;;;;;;28.65;12.98;;;;;;;3.89;58.71;99620.69;4990714;28;20035;-49
2024/01/17 05:51:50;;;;;;;31.38;12.57;;;;;;;3.94;58.44;99616.47;4990931;28;20035;-45
2024/01/17 05:54:15;;;;;;;30.48;13.30;;;;;;;3.85;58.98;99608.53;4990799;28;20092;-46
2024/01/17 05:56:40;;;;;;;28.45;12.88;;;;;;;3.89;58.56;99606.06;4990668;28;20038;-43
2024/01/17 05:59:06;;;;;;;25.83;12.63;;;;;;;3.93;58.34;99605.28;4991382;28;20038;-44
2024/01/17 06:01:31;;;;;;;27.30;12.90;;;;;;;3.89;58.85;99600.91;4990845;28;20034;-47
2024/01/17 06:03:56;;;;;;;26.73;12.48;;;;;;;3.93;58.70;99594.97;4991360;28;20085;-43
2024/01/17 06:06:21;;;;;;;30.20;11.90;;;;;;;4.17;57.31;99586.81;4990011;28;20046;-45
2024/01/17 06:08:47;;;;;;;27.83;12.57;;;;;;;4.17;57.91;99589.41;4991351;28;20045;-43
2024/01/17 06:11:12;;;;;;;27.75;12.25;;;;;;;4.18;57.48;99587.69;4991552;28;20031;-45
2024/01/17 06:13:38;;;;;;;28.40;12.00;;;;;;;4.15;57.13;99583.34;4991109;28;20034;-48
2024/01/17 06:16:03;;;;;;;27.48;12.48;;;;;;;4.08;57.62;99587.53;4990729;28;20034;-43
2024/01/17 06:18:28;;;;;;;24.75;11.70;;;;;;;4.14;57.46;99581.63;4990575;28;20134;-44
2024/01/17 06:20:54;;;;;;;27.77;12.10;;;;;;;4.16;57.82;99584.22;4991187;28;20030;-47
2024/01/17 06:23:19;;;;;;;27.05;11.70;;;;;;;4.13;56.87;99590.19;4990632;28;20428;-44
2024/01/17 06:25:44;;;;;;;27.77;12.68;;;;;;;4.15;57.20;99579.91;4990554;28;20039;-47
2024/01/17 06:28:10;;;;;;;26.45;11.80;;;;;;;4.13;57.92;99568.69;4991051;28;20042;-45
2024/01/17 06:30:35;;;;;;;31.08;12.45;;;;;;;4.03;57.97;99571.09;4990371;28;20034;-44
2024/01/17 06:33:00;;;;;;;26.92;12.55;;;;;;;3.96;58.47;99574.41;4991015;28;20042;-45
2024/01/17 06:35:26;;;;;;;35.42;12.75;;;;;;;4.06;57.83;99567.72;4989732;28;20555;-44
2024/01/17 06:37:51;;;;;;;28.40;13.15;;;;;;;3.81;58.16;99565.50;4991071;28;20488;-44
2024/01/17 06:40:16;;;;;;;27.73;12.35;;;;;;;3.99;57.72;99559.00;4991185;28;20134;-43
2024/01/17 06:42:42;;;;;;;28.88;12.88;;;;;;;4.10;57.65;99556.59;4990866;28;20034;-44
2024/01/17 06:45:07;;;;;;;30.97;13.13;;;;;;;4.08;57.47;99545.41;4990520;28;20034;-47
2024/01/17 06:47:33;;;;;;;28.42;12.80;;;;;;;4.18;56.97;99547.31;4990525;28;20034;-44
2024/01/17 06:49:58;;;;;;;27.20;12.15;;;;;;;4.19;57.50;99548.16;4989331;28;20400;-43
2024/01/17 06:52:23;;;;;;;30.42;12.35;;;;;;;4.16;57.31;99543.81;4989846;28;20035;-45
2024/01/17 06:54:49;;;;;;;29.88;12.70;;;;;;;4.13;56.62;99535.16;4990898;28;20085;-43
2024/01/17 06:57:14;;;;;;;27.73;12.32;;;;;;;3.95;56.83;99530.56;4989066;28;20050;-46
2024/01/17 06:59:40;;;;;;;29.35;12.35;;;;;;;3.98;56.91;99528.88;4990659;28;20042;-45
2024/01/17 07:02:06;;;;;;;32.38;13.05;;;;;;;4.00;56.66;99523.75;4991273;28;20050;-45
2024/01/17 07:04:31;;;;;;;28.83;12.48;;;;;;;4.18;56.13;99525.78;4995238;28;20038;-45
2024/01/17 07:06:56;;;;;;;27.35;11.70;;;;;;;4.18;55.92;99526.66;4992778;28;20125;-45
2024/01/17 07:09:22;;;;;;;29.95;11.40;;;;;;;4.20;56.45;99519.84;4990577;28;20065;-50
2024/01/17 07:11:47;;;;;;;29.83;12.00;;;;;;;4.25;55.90;99517.31;4990944;28;20046;-45
2024/01/17 07:14:12;;;;;;;27.33;12.27;;;;;;;3.94;56.62;99509.06;4991092;28;20053;-44
2024/01/17 07:16:38;;;;;;;28.33;12.80;;;;;;;4.30;56.16;99513.09;4990188;28;20073;-45
2024/01/17 07:19:03;;;;;;;29.75;12.60;;;;;;;4.22;55.92;99504.34;4994021;28;20038;-43
2024/01/17 07:21:28;;;;;;;29.88;12.38;;;;;;;4.19;56.00;99500.03;4993056;28;20038;-50
2024/01/17 07:23:54;;;;;;;29.40;12.50;;;;;;;4.25;56.01;99507.88;4991834;28;20034;-45
2024/01/17 07:26:19;;;;;;;26.35;11.32;;;;;;;4.14;55.20;99499.09;4991078;28;20058;-44
2024/01/17 07:28:44;;;;;;;26.02;12.20;;;;;;;4.27;55.18;99508.75;4991049;28;20033;-43
2024/01/17 07:31:09;;;;;;;28.45;12.70;;;;;;;4.14;55.53;99506.84;4990508;28;20049;-44
2024/01/17 07:33:35;;;;;;;30.63;12.23;;;;;;;4.24;55.11;99500.97;4990135;28;20039;-48
2024/01/17 07:36:00;;;;;;;27.42;12.23;;;;;;;4.06;55.75;99498.94;4990137;28;20225;-46
2024/01/17 07:38:25;;;;;;;30.63;12.77;;;;;;;4.21;55.62;99493.16;4989853;28;20066;-45
2024/01/17 07:40:51;;;;;;;28.27;12.80;;;;;;;4.29;54.83;99493.31;4990961;28;20060;-44
2024/01/17 07:43:17;;;;;;;25.38;11.25;;;;;;;4.45;54.44;99496.13;4990569;28;20069;-43
2024/01/17 07:45:42;;;;;;;24.73;12.35;;;;;;;4.29;54.55;99499.34;4995663;28;20057;-45
2024/01/17 07:48:07;;;;;;;23.15;11.23;;;;;;;4.23;54.66;99496.66;4998087;28;20098;-48
2024/01/17 07:50:36;;;;;;;29.42;11.98;;;;;;;4.31;54.33;99489.91;4998879;28;20034;-45
2024/01/17 07:53:01;;;;;;;26.77;11.95;;;;;;;4.35;54.26;99494.28;4994774;28;20038;-45
2024/01/17 07:55:26;;;;;;;26.65;12.43;;;;;;;4.45;53.73;99490.16;4992769;28;20495;-43
2024/01/17 07:57:52;;;;;;;26.10;11.85;;;;;;;4.47;53.97;99483.28;4991579;28;20030;-49
2024/01/17 08:00:18;;;;;;;27.75;12.10;;;;;;;4.35;54.12;99477.91;4993683;28;20413;-43
2024/01/17 08:02:43;;;;;;;29.23;11.63;;;;;;;4.31;53.50;99474.44;4994162;28;20513;-46
2024/01/17 08:05:11;;;;;;;26.80;11.65;;;;;;;4.48;53.52;99465.25;4994791;28;20113;-46
2024/01/17 08:07:36;;;;;;;25.17;11.98;;;;;;;4.43;53.48;99453.97;4992990;28;20026;-47
2024/01/17 08:10:01;;;;;;;24.27;11.60;;;;;;;4.42;53.29;99451.38;4993623;28;20084;-45
2024/01/17 08:12:27;;;;;;;27.13;11.82;;;;;;;4.53;53.40;99447.22;4993087;28;20077;-45
2024/01/17 08:14:52;;;;;;;28.05;11.20;;;;;;;4.54;52.79;99448.97;4993335;28;20042;-43
2024/01/17 08:17:18;;;;;;;27.17;11.98;;;;;;;4.53;53.60;99442.06;4992296;28;20496;-44
2024/01/17 08:19:43;;;;;;;25.50;11.50;;;;;;;4.55;53.65;99437.81;4993100;28;20121;-46
2024/01/17 08:22:09;;;;;;;25.65;11.82;;;;;;;4.27;54.10;99438.25;4993501;28;20030;-48
2024/01/17 08:24:35;;;;;;;28.00;11.70;;;;;;;4.45;53.06;99430.78;4992945;28;20038;-46
2024/01/17 08:27:00;;;;;;;28.30;11.73;;;;;;;4.48;53.25;99435.97;4993174;28;20236;-44
2024/01/17 08:29:26;;;;;;;27.23;12.02;;;;;;;4.57;53.58;99435.25;4992761;28;20619;-47
2024/01/17 08:31:52;;;;;;;28.00;11.13;;;;;;;4.62;53.10;99425.88;4993073;28;20662;-45
2024/01/17 08:34:20;;;;;;;25.23;11.57;;;;;;;4.66;53.25;99417.31;4992004;28;20409;-50
2024/01/17 08:36:45;;;;;;;28.40;11.75;;;;;;;4.66;52.68;99418.19;4992973;28;20621;-44
2024/01/17 08:39:11;;;;;;;26.42;11.30;;;;;;;4.71;52.98;99415.66;4992928;28;20117;-47
2024/01/17 08:41:37;;;;;;;29.08;11.65;;;;;;;4.64;52.91;99411.25;4993181;28;20022;-48
2024/01/17 08:44:02;;;;;;;27.35;11.27;;;;;;;4.80;53.16;99414.06;4993895;28;20042;-46
2024/01/17 08:46:31;;;;;;;25.55;11.90;;;;;;;4.68;53.28;99413.91;4992715;28;20041;-42
2024/01/17 08:48:56;;;;;;;26.40;11.63;;;;;;;4.85;53.04;99404.66;4994220;28;20125;-46
2024/01/17 08:51:24;;;;;;;26.02;11.73;;;;;;;4.85;52.48;99404.66;4993416;28;20121;-44
2024/01/17 08:53:49;;;;;;;28.42;11.90;;;;;;;4.77;53.09;99401.09;4993622;28;20038;-45
2024/01/17 08:56:15;;;;;;;27.58;12.15;;;;;;;4.87;53.09;99402.09;4990654;28;20385;-46
2024/01/17 08:58:41;;;;;;;25.65;11.55;;;;;;;4.97;53.06;99409.13;4992087;28;20026;-44
2024/01/17 09:01:06;;;;;;;24.90;12.13;;;;;;;4.89;52.91;99409.00;4992647;28;20034;-48
2024/01/17 09:03:34;;;;;;;25.58;12.00;;;;;;;5.02;52.75;99414.31;4992694;28;20028;-44
2024/01/17 09:06:00;;;;;;;27.17;13.10;;;;;;;5.09;52.23;99408.38;4992167;28;20392;-44
2024/01/17 09:08:26;;;;;;;29.35;12.50;;;;;;;5.04;52.50;99405.75;4991716;28;20038;-44
2024/01/17 09:10:51;;;;;;;28.83;12.45;;;;;;;5.18;52.13;99393.88;4993058;28;20362;-50
2024/01/17 09:13:16;;;;;;;26.92;12.55;;;;;;;5.23;52.16;99391.34;4992456;28;20129;-44
2024/01/17 09:15:41;;;;;;;28.55;12.40;;;;;;;5.23;52.20;99384.47;4992420;28;20026;-44
2024/01/17 09:18:07;;;;;;;27.67;12.32;;;;;;;5.13;52.14;99381.72;4992420;28;20030;-45
2024/01/17 09:20:33;;;;;;;28.98;13.48;;;;;;;5.17;52.67;99386.09;4992058;28;20027;-44
2024/01/17 09:22:58;;;;;;;26.75;12.25;;;;;;;5.26;52.66;99381.88;4991237;28;20449;-44
2024/01/17 09:25:24;;;;;;;27.88;12.63;;;;;;;5.23;52.10;99373.25;4991205;28;20088;-48
2024/01/17 09:27:49;;;;;;;27.33;12.65;;;;;;;5.31;51.82;99371.59;4992209;28;20124;-52
2024/01/17 09:30:15;;;;;;;29.30;13.00;;;;;;;5.32;52.00;99365.59;4992147;28;20424;-44
2024/01/17 09:32:41;;;;;;;24.15;12.48;;;;;;;5.34;51.98;99355.28;4990702;28;20037;-48
2024/01/17 09:35:08;;;;;;;25.27;12.50;;;;;;;5.47;51.85;99347.66;4991923;28;20041;-44
2024/01/17 09:37:36;;;;;;;29.80;13.05;;;;;;;5.45;51.48;99339.00;4991730;28;20084;-46
2024/01/17 09:40:08;;;;;;;27.77;13.30;;;;;;;5.11;52.12;99349.88;4992201;28;20560;-44
2024/01/17 09:42:33;;;;;;;27.58;12.77;;;;;;;5.41;50.75;99355.34;4992632;28;20409;-45
2024/01/17 09:45:00;;;;;;;26.23;12.13;;;;;;;5.50;51.07;99359.72;4992758;28;20125;-44
2024/01/17 09:47:26;;;;;;;25.70;11.90;;;;;;;5.46;51.31;99357.97;4992624;28;20038;-44
2024/01/17 09:49:52;;;;;;;26.35;12.50;;;;;;;5.39;50.98;99363.94;4993827;28;20038;-43
2024/01/17 09:52:21;;;;;;;29.92;12.88;;;;;;;5.42;51.03;99357.09;4991928;28;20525;-46
2024/01/17 09:54:50;;;;;;;29.05;12.45;;;;;;;5.27;51.76;99352.63;4992900;28;20050;-48
2024/01/17 09:57:23;;;;;;;29.67;13.02;;;;;;;5.50;52.43;99358.00;4991640;28;20135;-46
2024/01/17 10:00:07;;;;;;;27.13;12.23;;;;;;;5.40;51.05;99356.19;4992356;28;20129;-43
2024/01/17 10:02:38;;;;;;;25.50;12.13;;;;;;;5.38;51.58;99355.31;4991567;28;20094;-45
2024/01/17 10:05:08;;;;;;;29.90;11.93;;;;;;;5.62;51.59;99350.38;4993184;28;20030;-45
2024/01/17 10:07:34;;;;;;;27.80;12.20;;;;;;;5.82;50.43;99344.50;4992550;28;20042;-48
2024/01/17 10:09:59;;;;;;;25.73;12.20;;;;;;;5.88;50.77;99337.69;4989659;28;20036;-49
2024/01/17 10:12:25;;;;;;;25.35;12.35;;;;;;;5.84;50.18;99350.56;4990868;28;20593;-43
2024/01/17 10:14:50;;;;;;;27.42;12.13;;;;;;;5.64;50.41;99343.50;4991809;28;20034;-45
2024/01/17 10:17:16;;;;;;;25.58;12.57;;;;;;;5.82;49.97;99336.75;4991204;28;20069;-46
2024/01/17 10:19:41;;;;;;;25.17;12.60;;;;;;;5.93;50.15;99325.66;4991751;28;20062;-45
2024/01/17 10:22:10;;;;;;;23.23;11.00;;;;;;;5.75;49.33;99328.06;4992564;28;20035;-44
2024/01/17 10:24:36;;;;;;;23.48;11.60;;;;;;;6.02;49.72;99317.97;4992627;28;20042;-44
2024/01/17 10:27:03;;;;;;;23.60;11.63;;;;;;;5.91;49.26;99316.16;4995188;28;20074;-46
2024/01/17 10:29:46;;;;;;;25.25;11.70;;;;;;;6.13;48.39;99309.41;4992639;28;20547;-45
2024/01/17 10:32:12;;;;;;;24.73;11.73;;;;;;;6.15;48.31;99305.09;4989853;28;20069;-51
2024/01/17 10:34:41;;;;;;;24.95;11.75;;;;;;;5.97;48.30;99301.56;4991377;28;20065;-44
2024/01/17 10:37:07;;;;;;;28.98;11.98;;;;;;;6.17;48.76;99295.63;4991942;28;20030;-48
2024/01/17 10:39:32;;;;;;;25.38;11.77;;;;;;;6.17;48.58;99293.91;4991267;28;20624;-49
2024/01/17 10:41:59;;;;;;;23.52;11.02;;;;;;;6.16;48.07;99289.56;4991831;28;20125;-45
2024/01/17 10:44:26;;;;;;;22.67;11.18;;;;;;;5.99;47.73;99283.44;4991012;28;20031;-49
2024/01/17 10:46:52;;;;;;;22.42;11.38;;;;;;;5.97;48.53;99295.53;4990614;28;20042;-49
2024/01/17 10:49:18;;;;;;;24.50;11.02;;;;;;;5.85;48.07;99287.66;4990634;28;20157;-48
2024/01/17 10:51:56;;;;;;;22.42;10.68;;;;;;;6.10;48.31;99280.06;4991181;28;20038;-46
2024/01/17 10:54:26;;;;;;;25.02;12.10;;;;;;;6.16;47.92;99274.03;4990251;28;20044;-49
2024/01/17 10:56:54;;;;;;;28.08;11.35;;;;;;;6.37;48.14;99266.41;4990496;28;20038;-47
2024/01/17 10:59:21;;;;;;;20.80;10.85;;;;;;;6.15;47.80;99266.31;4990087;28;20410;-51
2024/01/17 11:01:50;;;;;;;24.05;11.82;;;;;;;6.36;48.30;99261.22;4990260;28;20108;-45
2024/01/17 11:04:34;;;;;;;24.65;10.93;;;;;;;6.31;48.11;99266.38;4990031;28;20038;-48
2024/01/17 11:07:00;;;;;;;25.05;11.05;;;;;;;6.20;47.60;99262.88;4988747;28;20509;-49
2024/01/17 11:09:26;;;;;;;27.23;11.27;;;;;;;6.33;47.98;99263.81;4989725;28;20070;-49
2024/01/17 11:11:52;;;;;;;24.73;11.90;;;;;;;6.44;48.04;99259.53;4990385;28;20045;-46
2024/01/17 11:14:18;;;;;;;25.58;11.85;;;;;;;6.33;47.73;99254.31;4990273;28;20050;-42
2024/01/17 11:16:49;;;;;;;24.90;11.63;;;;;;;5.98;48.36;99255.84;4990091;28;20038;-46
2024/01/17 11:19:19;;;;;;;22.02;11.52;;;;;;;5.94;48.43;99251.50;4990339;28;20053;-44
2024/01/17 11:21:45;;;;;;;24.75;11.32;;;;;;;5.89;48.91;99253.22;4993089;28;20046;-48
2024/01/17 11:24:27;;;;;;;22.85;11.45;;;;;;;6.36;47.86;99241.38;4994651;28;20030;-45
2024/01/17 11:27:22;;;;;;;25.00;12.05;;;;;;;6.08;47.83;99239.53;4994604;28;20035;-48
2024/01/17 11:29:47;;;;;;;;;;;;;;;6.23;48.24;99239.59;4994602;28;20045;-43
2024/01/17 11:32:22;;;;;;;24.87;11.17;;;;;;;6.56;47.59;99232.81;4994927;28;19914;-45
2024/01/17 11:34:48;;;;;;;23.30;11.35;;;;;;;6.63;47.69;99232.84;4992515;28;20836;-47
2024/01/17 11:37:30;;;;;;;22.08;11.15;;;;;;;7.04;46.62;99222.56;4995580;28;20069;-47
2024/01/17 11:39:56;;;;;;;22.45;11.35;;;;;;;6.96;46.05;99215.63;4992981;28;20118;-44
2024/01/17 11:42:22;;;;;;;26.58;11.82;;;;;;;6.78;46.56;99209.56;4999309;28;20097;-44
2024/01/17 11:44:48;;;;;;;24.58;11.57;;;;;;;6.87;46.82;99208.72;4998467;28;20038;-46
2024/01/17 11:47:19;;;;;;;26.60;12.82;;;;;;;7.10;46.90;99216.53;4994950;28;20560;-46
2024/01/17 11:49:46;;;;;;;24.98;12.68;;;;;;;7.32;45.96;99207.88;4993171;28;20084;-44
2024/01/17 11:52:31;;;;;;;25.17;12.70;;;;;;;7.13;45.83;99199.28;4993866;28;20030;-45
2024/01/17 11:54:57;;;;;;;23.70;12.05;;;;;;;7.09;46.60;99199.25;4993675;28;20073;-46
2024/01/17 11:57:29;;;;;;;23.58;12.00;;;;;;;7.26;46.06;99193.19;4992718;28;20039;-45
2024/01/17 12:00:08;;;;;;;24.92;12.20;;;;;;;7.00;45.45;99191.47;4993340;28;20061;-45